Time;durP1;ratioP1;P1;durP2;ratioP2;P2;SDS_P1;SDS_P2;PMS_P1;PMS_P2;Temp;Humidity;BMP_temperature;BMP_pressure;BME280_temperature;BME280_humidity;BME280_pressure;Samples;Min_cycle;Max_cycle;Signal;HPM_P1;HPM_P2
2022/04/22 00:01:02;;;;;;;14.63;7.30;;;;;;;28.88;17.19;97606.50;5071415;28;21389;-80
2022/04/22 00:03:28;;;;;;;14.57;8.00;;;;;;;28.67;17.44;97604.69;5075303;28;20537;-80
2022/04/22 00:05:54;;;;;;;15.52;9.55;;;;;;;27.88;18.55;97611.56;5074705;28;20106;-80
2022/04/22 00:08:22;;;;;;;14.20;8.93;;;;;;;27.72;18.30;97603.41;5073316;28;20041;-80
2022/04/22 00:13:35;;;;;;;15.13;9.20;;;;;;;28.57;17.44;97595.44;5084185;28;20481;-78
2022/04/22 00:16:03;;;;;;;13.18;8.55;;;;;;;28.88;17.01;97589.53;5077923;28;20366;-79
2022/04/22 00:18:31;;;;;;;14.48;7.18;;;;;;;29.06;16.88;97591.47;5076211;28;20600;-80
2022/04/22 00:20:57;;;;;;;13.05;7.45;;;;;;;29.16;16.61;97581.69;5076340;28;20020;-80
2022/04/22 00:23:23;;;;;;;13.38;7.75;;;;;;;28.80;17.23;97581.88;5071547;28;20047;-80
2022/04/22 00:25:49;;;;;;;13.48;8.02;;;;;;;28.88;17.13;97583.88;5073369;28;20052;-80
2022/04/22 00:28:16;;;;;;;12.20;7.32;;;;;;;28.94;16.71;97584.03;5069982;28;20049;-80
2022/04/22 00:30:46;;;;;;;12.77;7.90;;;;;;;28.64;17.17;97574.56;5074367;28;20020;-79
2022/04/22 00:33:12;;;;;;;15.40;8.45;;;;;;;27.82;18.14;97576.78;5064757;28;20040;-80
2022/04/22 00:35:38;;;;;;;12.30;7.35;;;;;;;27.48;18.62;97569.41;5072099;28;20093;-80
2022/04/22 00:38:04;;;;;;;12.85;8.02;;;;;;;27.68;18.20;97568.94;5070458;28;20104;-80
2022/04/22 00:40:30;;;;;;;12.57;7.80;;;;;;;27.64;18.15;97565.47;5074541;28;20060;-80
2022/04/22 00:42:56;;;;;;;14.77;7.75;;;;;;;28.00;18.05;97569.09;5069630;28;20032;-80
2022/04/22 00:45:22;;;;;;;18.02;7.95;;;;;;;28.39;17.51;97561.63;5069322;28;20027;-79
2022/04/22 00:47:51;;;;;;;12.98;7.63;;;;;;;28.36;17.47;97559.72;5073645;28;20137;-79
2022/04/22 00:50:17;;;;;;;13.55;7.60;;;;;;;28.30;17.76;97560.84;5083268;28;20549;-79
2022/04/22 00:52:44;;;;;;;13.55;7.43;;;;;;;28.41;17.66;97556.28;5072107;28;20120;-80
2022/04/22 00:55:10;;;;;;;14.95;8.70;;;;;;;28.64;17.36;97555.56;5078139;28;20401;-80
2022/04/22 00:57:37;;;;;;;10.50;6.07;;;;;;;28.68;17.23;97552.59;5075701;28;20021;-79
2022/04/22 01:00:04;;;;;;;12.02;7.70;;;;;;;28.16;17.79;97548.19;5069853;28;20025;-80
2022/04/22 01:02:30;;;;;;;11.23;7.05;;;;;;;27.64;18.23;97546.53;5073201;28;20533;-80
2022/04/22 01:10:27;;;;;;;12.55;7.70;;;;;;;28.56;17.33;97554.34;5066556;28;20035;-79
2022/04/22 01:12:53;;;;;;;11.43;6.65;;;;;;;28.78;17.16;97550.50;5071497;28;20043;-80
2022/04/22 01:15:20;;;;;;;12.18;7.15;;;;;;;28.89;16.95;97560.03;5068653;28;20024;-80
2022/04/22 01:17:48;;;;;;;11.20;6.35;;;;;;;28.75;17.04;97560.72;5069459;28;20033;-80
2022/04/22 01:20:16;;;;;;;12.02;6.53;;;;;;;27.94;18.12;97561.69;5072240;28;20032;-80
2022/04/22 01:22:42;;;;;;;10.75;6.10;;;;;;;27.39;18.60;97558.91;5070546;28;20478;-79
2022/04/22 01:25:09;;;;;;;9.20;6.13;;;;;;;27.17;18.47;97555.41;5072222;28;20025;-79
2022/04/22 01:27:37;;;;;;;12.68;6.78;;;;;;;27.24;18.46;97548.69;5072495;28;20033;-80
2022/04/22 01:30:06;;;;;;;12.02;6.75;;;;;;;27.83;18.15;97544.47;5070444;28;21717;-80
2022/04/22 01:32:32;;;;;;;9.75;5.90;;;;;;;28.25;17.52;97539.69;5070988;28;20434;-80
2022/04/22 01:34:59;;;;;;;10.98;6.18;;;;;;;28.39;17.46;97546.72;5069702;28;20039;-80
2022/04/22 01:37:25;;;;;;;9.18;5.63;;;;;;;28.67;17.08;97545.38;5071020;28;20047;-80
2022/04/22 01:39:52;;;;;;;10.00;6.53;;;;;;;28.90;16.88;97543.81;5069353;28;20047;-79
2022/04/22 01:42:18;;;;;;;11.30;6.35;;;;;;;29.05;16.91;97548.31;5070561;28;20039;-79
2022/04/22 01:44:45;;;;;;;9.63;5.82;;;;;;;28.68;17.26;97544.88;5069051;28;20043;-79
2022/04/22 01:47:11;;;;;;;10.48;6.18;;;;;;;28.71;17.30;97543.94;5068561;28;20043;-80
2022/04/22 01:49:37;;;;;;;9.40;5.97;;;;;;;28.62;17.41;97543.97;5071036;28;20033;-80
2022/04/22 01:52:03;;;;;;;11.65;6.25;;;;;;;28.65;17.54;97542.25;5069738;28;20729;-79
2022/04/22 01:54:29;;;;;;;12.45;6.57;;;;;;;28.51;17.38;97546.50;5067622;28;20047;-80
2022/04/22 01:56:57;;;;;;;11.15;6.47;;;;;;;27.95;17.92;97549.94;5069417;28;20032;-79
2022/04/22 01:59:23;;;;;;;9.35;5.38;;;;;;;27.95;18.12;97546.34;5073796;28;20449;-80
2022/04/22 02:01:49;;;;;;;11.00;5.55;;;;;;;28.17;17.65;97549.75;5066944;28;20070;-80
2022/04/22 02:04:15;;;;;;;11.20;5.72;;;;;;;28.17;17.73;97537.69;5074715;28;20078;-79
2022/04/22 02:06:41;;;;;;;10.82;6.72;;;;;;;28.40;17.39;97534.16;5071721;28;20036;-79
2022/04/22 02:09:07;;;;;;;10.48;6.65;;;;;;;28.40;17.25;97543.41;5068138;28;20055;-79
2022/04/22 02:11:34;;;;;;;7.97;5.47;;;;;;;28.37;17.51;97526.63;5079628;28;20025;-80
2022/04/22 02:14:00;;;;;;;13.25;6.82;;;;;;;27.94;17.94;97528.63;5071658;28;20047;-80
2022/04/22 02:16:26;;;;;;;9.38;5.60;;;;;;;27.47;18.33;97513.50;5071790;28;20067;-79
2022/04/22 02:18:52;;;;;;;6.90;4.97;;;;;;;26.84;19.02;97520.59;5070399;28;20106;-80
2022/04/22 02:21:18;;;;;;;9.18;5.18;;;;;;;26.56;19.48;97508.44;5076654;28;20056;-80
2022/04/22 02:23:44;;;;;;;8.27;5.60;;;;;;;26.65;19.47;97516.91;5076984;28;20028;-80
2022/04/22 02:26:10;;;;;;;11.55;6.05;;;;;;;27.25;18.75;97516.44;5081355;28;20035;-79
2022/04/22 02:28:36;;;;;;;10.10;6.22;;;;;;;27.50;18.28;97507.69;5078941;28;20406;-80
2022/04/22 02:31:06;;;;;;;9.70;5.85;;;;;;;27.92;17.76;97505.72;5074174;28;20861;-80
2022/04/22 02:33:33;;;;;;;8.10;5.43;;;;;;;28.29;17.58;97503.59;5077710;28;20024;-79
2022/04/22 02:35:59;;;;;;;8.70;5.30;;;;;;;28.58;17.06;97505.84;5073233;28;20047;-80
2022/04/22 02:38:29;;;;;;;9.02;6.13;;;;;;;28.81;17.21;97512.78;5076809;28;20034;-80
2022/04/22 02:46:28;;;;;;;9.52;5.80;;;;;;;27.50;18.55;97520.97;5070351;28;20629;-79
2022/04/22 02:49:00;;;;;;;9.68;6.28;;;;;;;27.14;18.53;97511.25;5075529;28;20086;-78
2022/04/22 02:51:27;;;;;;;10.68;6.30;;;;;;;27.10;18.66;97516.25;5071839;28;20443;-79
2022/04/22 02:53:54;;;;;;;8.70;5.78;;;;;;;27.26;18.63;97513.13;5075007;28;20035;-80
2022/04/22 02:56:21;;;;;;;11.32;6.70;;;;;;;27.54;18.72;97502.66;5072639;28;20040;-79
2022/04/22 02:58:48;;;;;;;9.38;5.50;;;;;;;27.97;17.80;97507.13;5074522;28;20588;-79
2022/04/22 03:01:15;;;;;;;9.73;5.40;;;;;;;28.10;17.61;97509.81;5069007;28;20479;-79
2022/04/22 03:03:45;;;;;;;9.80;6.47;;;;;;;28.36;17.28;97503.25;5074364;28;20043;-79
2022/04/22 03:06:14;;;;;;;11.27;6.28;;;;;;;28.17;17.50;97498.19;5080078;28;20098;-79
2022/04/22 03:08:40;;;;;;;10.18;6.43;;;;;;;27.84;18.04;97495.25;5075140;28;20214;-79
2022/04/22 03:11:06;;;;;;;8.88;5.60;;;;;;;27.93;17.69;97493.19;5079489;28;20032;-80
2022/04/22 03:13:33;;;;;;;9.07;5.45;;;;;;;28.26;17.54;97495.31;5077570;28;20123;-80
2022/04/22 03:16:02;;;;;;;9.75;5.40;;;;;;;28.52;17.35;97488.00;5073388;28;20024;-80
2022/04/22 03:18:28;;;;;;;10.52;6.18;;;;;;;28.74;17.06;97492.13;5079784;28;20056;-80
2022/04/22 03:20:55;;;;;;;9.73;5.78;;;;;;;28.88;16.85;97499.09;5075056;28;20474;-80
2022/04/22 03:23:23;;;;;;;9.82;5.78;;;;;;;28.97;16.78;97503.91;5075668;28;20116;-79
2022/04/22 03:25:50;;;;;;;10.73;6.32;;;;;;;28.85;17.00;97502.88;5071268;28;20456;-79
2022/04/22 03:28:16;;;;;;;8.02;5.70;;;;;;;28.30;17.56;97495.91;5076604;28;20039;-79
2022/04/22 03:30:42;;;;;;;9.93;6.45;;;;;;;27.82;18.18;97492.91;5073122;28;20116;-80
2022/04/22 03:33:08;;;;;;;8.60;6.30;;;;;;;27.52;18.44;97495.91;5075783;28;20171;-79
2022/04/22 03:35:34;;;;;;;10.00;5.50;;;;;;;27.08;18.84;97489.78;5073913;28;20539;-80
2022/04/22 03:38:00;;;;;;;10.75;6.50;;;;;;;26.81;19.15;97498.22;5082603;28;20043;-79
2022/04/22 03:40:29;;;;;;;8.82;5.80;;;;;;;26.65;19.51;97496.44;5074330;28;20498;-78
2022/04/22 03:42:55;;;;;;;11.75;6.90;;;;;;;26.88;19.26;97495.09;5076381;28;20032;-80
2022/04/22 03:45:22;;;;;;;8.85;5.75;;;;;;;27.46;18.62;97478.88;5075227;28;20078;-79
2022/04/22 03:47:48;;;;;;;12.65;6.32;;;;;;;27.74;18.53;97477.56;5075036;28;20043;-80
2022/04/22 03:50:14;;;;;;;10.05;6.60;;;;;;;27.82;18.20;97478.03;5076996;28;20035;-80
2022/04/22 03:52:40;;;;;;;11.43;7.30;;;;;;;27.71;18.48;97478.50;5076610;28;20371;-80
2022/04/22 03:55:07;;;;;;;9.90;6.70;;;;;;;27.90;18.37;97482.06;5071120;28;20028;-80
2022/04/22 04:00:18;;;;;;;10.00;6.38;;;;;;;28.14;18.01;97482.19;5074893;28;20063;-80
2022/04/22 04:02:44;;;;;;;9.75;6.32;;;;;;;27.54;18.51;97488.56;5074953;28;20024;-80
2022/04/22 04:05:10;;;;;;;9.38;5.88;;;;;;;27.13;18.94;97483.53;5074641;28;20035;-80
2022/04/22 04:07:36;;;;;;;9.38;6.43;;;;;;;27.28;19.12;97487.31;5078372;28;20162;-80
2022/04/22 04:18:17;;;;;;;11.68;6.63;;;;;;;27.89;18.40;97480.53;5075627;28;20139;-79
2022/04/22 04:23:27;;;;;;;9.88;6.38;;;;;;;28.57;17.62;97501.44;5071584;28;20062;-80
2022/04/22 04:25:53;;;;;;;9.45;6.30;;;;;;;28.67;17.68;97503.78;5072363;28;20043;-80
2022/04/22 04:28:20;;;;;;;12.07;7.57;;;;;;;28.74;17.67;97505.47;5070031;28;20493;-80
2022/04/22 04:30:46;;;;;;;13.10;7.95;;;;;;;28.77;17.67;97507.34;5071809;28;20040;-80
2022/04/22 04:33:12;;;;;;;16.63;8.13;;;;;;;28.32;18.11;97510.34;5067582;28;20485;-79
2022/04/22 04:35:39;;;;;;;12.18;7.78;;;;;;;27.98;18.45;97498.19;5074902;28;20042;-80
2022/04/22 04:38:06;;;;;;;15.25;9.38;;;;;;;27.73;18.79;97506.22;5076879;28;20041;-79
2022/04/22 04:40:33;;;;;;;15.43;8.32;;;;;;;27.52;18.95;97507.97;5075472;28;20036;-80
2022/04/22 04:43:00;;;;;;;14.93;9.73;;;;;;;27.33;19.30;97512.81;5066281;28;20485;-78
2022/04/22 04:45:28;;;;;;;13.60;8.18;;;;;;;27.37;19.31;97516.31;5072529;28;20402;-79
2022/04/22 04:47:54;;;;;;;14.60;9.25;;;;;;;27.42;19.39;97522.56;5066182;28;20033;-79
2022/04/22 04:50:20;;;;;;;15.68;8.82;;;;;;;27.36;19.41;97516.72;5070688;28;20121;-79
2022/04/22 04:52:46;;;;;;;17.67;10.02;;;;;;;27.40;19.31;97518.19;5073780;28;20089;-78
2022/04/22 04:55:15;;;;;;;13.38;8.90;;;;;;;27.42;19.27;97520.53;5070612;28;20490;-78
2022/04/22 04:57:42;;;;;;;18.15;9.50;;;;;;;27.28;19.48;97524.72;5068447;28;20031;-79
2022/04/22 05:00:10;;;;;;;16.75;9.90;;;;;;;27.24;19.39;97520.47;5072526;28;20500;-79
2022/04/22 05:02:37;;;;;;;15.88;9.95;;;;;;;27.21;19.61;97522.19;5069162;28;20064;-78
2022/04/22 05:05:05;;;;;;;15.15;9.20;;;;;;;27.10;19.52;97527.53;5066432;28;20086;-78
2022/04/22 05:07:32;;;;;;;16.70;10.50;;;;;;;27.03;19.91;97524.22;5069283;28;20474;-79
2022/04/22 05:09:58;;;;;;;15.80;9.35;;;;;;;27.20;19.54;97531.13;5070561;28;20073;-79
2022/04/22 05:12:24;;;;;;;14.55;8.98;;;;;;;27.18;19.37;97517.53;5071747;28;20036;-78
2022/04/22 05:14:50;;;;;;;15.10;9.32;;;;;;;27.40;19.49;97518.19;5070808;28;20036;-78
2022/04/22 05:17:16;;;;;;;15.95;8.63;;;;;;;27.35;19.36;97510.31;5073628;28;20962;-77
2022/04/22 05:19:42;;;;;;;17.83;11.52;;;;;;;27.10;19.52;97519.06;5069621;28;20541;-78
2022/04/22 05:22:08;;;;;;;18.48;11.48;;;;;;;27.07;19.51;97505.16;5071557;28;20113;-77
2022/04/22 05:24:35;;;;;;;15.57;10.07;;;;;;;27.08;19.72;97515.94;5067352;28;20062;-77
2022/04/22 05:27:01;;;;;;;20.40;12.45;;;;;;;27.24;19.72;97514.84;5068488;28;20039;-79
2022/04/22 05:34:57;;;;;;;18.58;11.18;;;;;;;27.36;20.37;97514.72;5074441;28;20040;-77
2022/04/22 05:37:23;;;;;;;20.10;12.75;;;;;;;26.93;20.11;97514.22;5075875;28;20032;-76
2022/04/22 05:39:48;;;;;;;17.20;9.88;;;;;;;26.81;20.69;97513.09;5069741;28;20082;-77
2022/04/22 05:42:15;;;;;;;18.33;11.45;;;;;;;26.31;21.25;97517.13;5078528;28;20371;-77
2022/04/22 05:44:41;;;;;;;21.45;11.30;;;;;;;26.81;20.96;97523.56;5071600;28;20478;-77
2022/04/22 05:47:07;;;;;;;20.55;13.85;;;;;;;26.47;21.16;97516.84;5070475;28;20039;-76
2022/04/22 05:49:33;;;;;;;18.48;11.77;;;;;;;26.59;20.91;97509.53;5070227;28;20070;-76
2022/04/22 05:51:59;;;;;;;18.70;11.48;;;;;;;26.99;20.60;97503.88;5067599;28;20032;-77
2022/04/22 05:54:25;;;;;;;19.13;11.75;;;;;;;26.99;21.37;97506.69;5074477;28;20034;-77
2022/04/22 05:56:51;;;;;;;17.70;11.27;;;;;;;26.16;22.06;97495.63;5067901;28;20063;-77
2022/04/22 05:59:17;;;;;;;17.38;10.32;;;;;;;25.77;22.42;97492.25;5068622;28;20608;-79
2022/04/22 06:01:43;;;;;;;14.32;9.52;;;;;;;25.54;22.90;97495.56;5073398;28;20055;-79
2022/04/22 06:04:09;;;;;;;16.98;9.52;;;;;;;26.09;22.59;97488.22;5069847;28;20042;-79
2022/04/22 06:06:35;;;;;;;16.90;11.07;;;;;;;26.49;22.04;97483.38;5079911;28;20409;-77
2022/04/22 06:11:46;;;;;;;18.17;11.32;;;;;;;26.01;22.66;97484.13;5064682;28;20784;-77
2022/04/22 06:14:12;;;;;;;15.48;10.60;;;;;;;26.76;21.83;97482.72;5078036;28;20028;-77
2022/04/22 06:16:39;;;;;;;13.88;8.82;;;;;;;27.21;21.31;97488.38;5073206;28;20071;-77
2022/04/22 06:19:05;;;;;;;16.02;10.73;;;;;;;27.11;21.31;97480.41;5069762;28;20091;-77
2022/04/22 06:21:31;;;;;;;13.93;9.02;;;;;;;26.79;21.79;97490.25;5066707;28;20449;-77
2022/04/22 06:23:57;;;;;;;15.75;10.65;;;;;;;26.86;21.28;97486.34;5071735;28;20111;-77
2022/04/22 06:26:23;;;;;;;14.02;8.75;;;;;;;27.54;20.89;97484.97;5077077;28;20062;-77
2022/04/22 06:28:49;;;;;;;12.77;8.05;;;;;;;28.24;20.19;97489.38;5079544;28;20501;-77
2022/04/22 06:31:16;;;;;;;10.75;7.13;;;;;;;28.62;20.18;97489.50;5077561;28;20471;-78
2022/04/22 06:33:42;;;;;;;11.48;7.38;;;;;;;28.98;19.92;97489.31;5076853;28;20042;-78
2022/04/22 06:36:13;;;;;;;9.13;6.07;;;;;;;29.18;19.49;97474.56;5082264;28;20037;-77
2022/04/22 06:38:43;;;;;;;11.35;7.55;;;;;;;29.24;19.54;97483.94;5075693;28;20032;-80
2022/04/22 06:46:42;;;;;;;12.05;7.72;;;;;;;28.59;20.09;97473.53;5080186;28;20039;-78
2022/04/22 06:49:11;;;;;;;11.70;7.95;;;;;;;28.67;19.91;97481.16;5078734;28;20478;-78
2022/04/22 06:51:39;;;;;;;13.65;8.15;;;;;;;28.89;19.75;97480.88;5077420;28;20051;-78
2022/04/22 06:54:05;;;;;;;8.38;5.93;;;;;;;28.96;19.71;97480.53;5080444;28;20056;-78
2022/04/22 06:56:32;;;;;;;10.63;7.10;;;;;;;28.87;19.50;97480.56;5081162;28;20485;-78
2022/04/22 06:58:58;;;;;;;11.23;7.43;;;;;;;27.29;21.20;97481.19;5077915;28;20032;-78
2022/04/22 07:01:25;;;;;;;11.20;7.78;;;;;;;28.06;20.53;97485.34;5080208;28;20025;-78
2022/04/22 07:03:51;;;;;;;9.68;6.00;;;;;;;28.58;20.15;97484.03;5081451;28;20033;-78
2022/04/22 07:06:18;;;;;;;9.95;6.50;;;;;;;28.23;20.18;97484.97;5079592;28;20067;-78
2022/04/22 07:08:46;;;;;;;9.13;5.97;;;;;;;28.05;21.14;97488.66;5078756;28;20028;-78
2022/04/22 07:11:22;;;;;;;9.38;6.25;;;;;;;28.45;19.88;97488.34;5080769;28;20032;-78
2022/04/22 07:13:48;;;;;;;9.88;7.10;;;;;;;28.12;20.40;97482.66;5084219;28;20085;-78
2022/04/22 07:16:17;;;;;;;11.27;6.60;;;;;;;26.72;21.68;97493.31;5083289;28;20396;-78
2022/04/22 07:18:44;;;;;;;10.48;7.47;;;;;;;26.79;21.28;97492.28;5082454;28;20443;-78
2022/04/22 07:21:10;;;;;;;10.10;6.88;;;;;;;26.64;21.64;97492.03;5082994;28;20028;-78
2022/04/22 07:23:36;;;;;;;7.85;5.40;;;;;;;27.72;20.97;97484.94;5080737;28;20437;-78
2022/04/22 07:26:09;;;;;;;7.28;5.80;;;;;;;27.67;20.38;97494.03;5080993;28;20036;-78
2022/04/22 07:28:35;;;;;;;10.27;6.45;;;;;;;28.35;20.25;97492.44;5082113;28;20040;-78
2022/04/22 07:31:02;;;;;;;6.32;4.60;;;;;;;29.08;19.29;97485.13;5078568;28;20033;-78
2022/04/22 07:33:28;;;;;;;7.43;5.13;;;;;;;29.15;18.99;97484.75;5083303;28;20040;-79
2022/04/22 07:35:54;;;;;;;8.23;6.10;;;;;;;29.05;19.23;97474.81;5079536;28;20123;-78
2022/04/22 07:38:21;;;;;;;6.10;5.32;;;;;;;29.04;19.89;97486.56;5084647;28;20052;-79
2022/04/22 07:40:51;;;;;;;7.20;4.88;;;;;;;29.39;19.44;97479.88;5082852;28;20086;-79
2022/04/22 07:48:53;;;;;;;5.07;3.80;;;;;;;27.78;20.21;97488.66;5082823;28;20051;-79
2022/04/22 07:51:22;;;;;;;6.43;4.28;;;;;;;26.34;21.39;97488.03;5083257;28;20401;-79
2022/04/22 07:53:49;;;;;;;6.60;4.75;;;;;;;27.18;21.00;97491.38;5084326;28;20374;-80
2022/04/22 07:56:15;;;;;;;3.95;3.50;;;;;;;28.02;20.22;97493.19;5081132;28;20115;-79
2022/04/22 07:58:41;;;;;;;3.65;3.15;;;;;;;28.36;19.54;97483.50;5081460;28;20044;-79
2022/04/22 08:01:08;;;;;;;4.82;3.20;;;;;;;28.69;20.10;97477.84;5080303;28;20388;-79
2022/04/22 08:03:36;;;;;;;4.88;3.30;;;;;;;29.32;18.65;97474.59;5083856;28;20484;-79
2022/04/22 08:06:03;;;;;;;4.93;3.50;;;;;;;28.50;19.71;97467.88;5083051;28;20089;-79
2022/04/22 08:08:30;;;;;;;3.75;3.20;;;;;;;28.77;19.38;97473.44;5083984;28;20071;-79
2022/04/22 08:10:57;;;;;;;4.75;3.38;;;;;;;28.11;19.28;97466.97;5083175;28;20496;-79
2022/04/22 08:13:25;;;;;;;4.97;2.50;;;;;;;28.61;19.92;97471.00;5081425;28;20043;-79
2022/04/22 08:15:52;;;;;;;3.53;2.83;;;;;;;27.99;20.14;97465.91;5079526;28;20039;-79
2022/04/22 08:18:18;;;;;;;5.45;3.75;;;;;;;26.84;21.81;97466.31;5080596;28;20036;-80
2022/04/22 08:20:44;;;;;;;5.80;4.10;;;;;;;25.16;23.33;97473.22;5082127;28;20048;-80
2022/04/22 08:23:11;;;;;;;5.30;3.72;;;;;;;27.15;21.46;97464.91;5081504;28;20036;-80
2022/04/22 08:25:37;;;;;;;5.40;3.67;;;;;;;28.45;19.76;97460.09;5080747;28;20483;-80
2022/04/22 08:28:03;;;;;;;6.10;4.10;;;;;;;27.49;21.40;97463.81;5077067;28;20091;-80
2022/04/22 08:30:30;;;;;;;6.35;4.18;;;;;;;25.87;22.83;97471.41;5080457;28;20047;-80
2022/04/22 08:33:01;;;;;;;6.05;4.22;;;;;;;24.62;24.73;97465.03;5075889;28;20032;-79
2022/04/22 08:35:27;;;;;;;9.55;5.60;;;;;;;24.66;24.77;97467.75;5074467;28;20055;-79
2022/04/22 08:37:54;;;;;;;6.80;4.88;;;;;;;25.47;23.27;97472.53;5075598;28;20044;-79
2022/04/22 08:40:20;;;;;;;6.10;4.75;;;;;;;24.45;24.77;97460.03;5077308;28;20033;-80
2022/04/22 08:42:47;;;;;;;5.43;3.95;;;;;;;25.03;24.25;97452.84;5079439;28;20123;-79
2022/04/22 08:45:13;;;;;;;10.98;6.72;;;;;;;23.93;25.75;97457.69;5078521;28;20486;-79
2022/04/22 08:50:30;;;;;;;13.45;9.10;;;;;;;23.89;26.47;97468.22;5078219;28;20055;-79
2022/04/22 08:53:07;;;;;;;10.35;7.43;;;;;;;23.92;26.76;97465.31;5077268;28;20810;-79
2022/04/22 08:55:34;;;;;;;12.82;9.75;;;;;;;24.26;26.00;97458.25;5077470;28;20028;-79
2022/04/22 08:58:03;;;;;;;14.05;9.57;;;;;;;23.84;26.64;97455.56;5079338;28;20490;-79
2022/04/22 09:00:35;;;;;;;12.80;8.63;;;;;;;23.56;27.46;97447.22;5078262;28;20032;-79
2022/04/22 09:03:01;;;;;;;10.15;7.50;;;;;;;23.57;27.28;97446.75;5074467;28;20052;-79
2022/04/22 09:05:27;;;;;;;10.85;7.22;;;;;;;24.38;25.88;97444.22;5078049;28;20039;-80
2022/04/22 09:07:53;;;;;;;12.48;8.38;;;;;;;24.67;25.79;97442.03;5077224;28;20489;-80
2022/04/22 09:10:20;;;;;;;12.15;8.10;;;;;;;24.66;25.96;97445.28;5080942;28;20080;-80
2022/04/22 09:12:54;;;;;;;13.90;8.77;;;;;;;23.78;26.78;97450.97;5075763;28;20028;-79
2022/04/22 09:15:31;;;;;;;13.15;8.55;;;;;;;25.17;25.39;97462.78;5078877;28;20101;-79
2022/04/22 09:18:08;;;;;;;17.30;10.00;;;;;;;23.32;28.60;97452.28;5076514;28;20115;-79
2022/04/22 09:20:35;;;;;;;18.70;11.02;;;;;;;22.32;29.81;97446.97;5076578;28;20134;-79
2022/04/22 09:23:05;;;;;;;14.45;10.50;;;;;;;23.19;27.79;97431.88;5078034;28;20488;-79
2022/04/22 09:25:32;;;;;;;14.37;9.63;;;;;;;22.59;29.20;97434.25;5081016;28;20035;-80
2022/04/22 09:28:09;;;;;;;15.05;10.60;;;;;;;22.95;29.90;97436.13;5076646;28;20037;-80
2022/04/22 09:30:35;;;;;;;18.48;11.80;;;;;;;22.92;29.00;97431.44;5073858;28;20077;-80
2022/04/22 09:33:01;;;;;;;21.58;13.45;;;;;;;21.84;30.63;97436.53;5073851;28;20028;-79
2022/04/22 09:35:29;;;;;;;21.27;13.25;;;;;;;21.83;31.09;97441.31;5074275;28;20036;-79
2022/04/22 09:43:36;;;;;;;18.65;12.52;;;;;;;21.60;30.79;97449.03;5072864;28;20055;-80
2022/04/22 09:46:03;;;;;;;21.83;14.25;;;;;;;20.98;32.34;97449.91;5078388;28;20036;-79
2022/04/22 09:48:46;;;;;;;20.58;12.32;;;;;;;23.63;29.03;97447.78;5075113;28;20044;-80
2022/04/22 09:51:22;;;;;;;19.90;11.63;;;;;;;23.41;27.81;97449.63;5068462;28;20082;-79
2022/04/22 09:54:01;;;;;;;16.00;10.60;;;;;;;22.96;28.97;97455.31;5069752;28;20036;-79
2022/04/22 09:56:28;;;;;;;17.00;11.35;;;;;;;23.49;27.93;97458.63;5073893;28;20042;-79
2022/04/22 09:58:54;;;;;;;20.65;11.23;;;;;;;23.59;27.74;97466.72;5072077;28;20028;-79
2022/04/22 10:01:20;;;;;;;16.75;11.52;;;;;;;25.15;25.87;97468.84;5075803;28;20436;-79
2022/04/22 10:03:47;;;;;;;18.55;10.77;;;;;;;24.09;27.03;97479.25;5074031;28;20482;-79
2022/04/22 10:06:13;;;;;;;19.27;11.40;;;;;;;24.35;26.98;97473.19;5075088;28;20082;-80
2022/04/22 10:08:40;;;;;;;19.17;12.18;;;;;;;24.28;26.80;97479.03;5077876;28;20120;-80
2022/04/22 10:11:07;;;;;;;16.13;9.43;;;;;;;24.50;26.73;97491.13;5082048;28;20037;-80
2022/04/22 10:13:42;;;;;;;20.17;13.20;;;;;;;23.29;28.19;97489.59;5078280;28;20031;-81
2022/04/22 10:16:10;;;;;;;17.90;11.35;;;;;;;22.94;28.98;97487.78;5080366;28;20028;-80
2022/04/22 10:18:40;;;;;;;21.27;13.63;;;;;;;22.13;30.07;97489.75;5082468;28;20088;-81
2022/04/22 10:21:07;;;;;;;19.45;12.13;;;;;;;23.56;29.14;97489.25;5081640;28;20119;-80
2022/04/22 10:23:34;;;;;;;16.58;10.73;;;;;;;23.99;27.50;97484.72;5072522;28;20107;-80
2022/04/22 10:26:02;;;;;;;15.65;10.18;;;;;;;25.67;25.14;97481.44;5078706;28;20047;-80
2022/04/22 10:28:29;;;;;;;18.73;11.35;;;;;;;23.91;27.52;97476.97;5080818;28;20036;-80
2022/04/22 10:31:01;;;;;;;18.92;12.57;;;;;;;22.57;29.16;97466.69;5076528;28;20127;-80
2022/04/22 10:33:39;;;;;;;17.00;9.98;;;;;;;22.50;29.42;97470.47;5081788;28;20070;-79
2022/04/22 10:36:05;;;;;;;14.57;9.73;;;;;;;24.19;27.24;97469.72;5080671;28;20128;-81
2022/04/22 10:38:38;;;;;;;14.43;8.70;;;;;;;25.90;24.76;97464.84;5078710;28;20090;-80
2022/04/22 10:41:12;;;;;;;14.48;8.27;;;;;;;25.95;24.70;97469.09;5080730;28;20371;-80
2022/04/22 10:43:39;;;;;;;21.33;12.85;;;;;;;24.26;26.47;97459.06;5081716;28;20485;-80
2022/04/22 10:49:15;;;;;;;16.77;10.90;;;;;;;22.34;30.38;97459.28;5083175;28;20104;-80
2022/04/22 10:52:00;;;;;;;19.60;11.93;;;;;;;22.49;29.83;97454.13;5083436;28;20378;-80
2022/04/22 10:54:49;;;;;;;20.63;13.45;;;;;;;21.43;31.78;97452.97;5084897;28;20039;-80
2022/04/22 10:57:19;;;;;;;19.35;12.50;;;;;;;22.29;30.32;97453.41;5082408;28;20393;-80
2022/04/22 11:00:00;;;;;;;17.30;11.70;;;;;;;23.60;28.36;97440.28;5082871;28;20086;-80
2022/04/22 11:02:31;;;;;;;15.90;10.35;;;;;;;22.80;29.33;97458.13;5079320;28;20073;-80
2022/04/22 11:07:53;;;;;;;17.67;11.38;;;;;;;22.62;29.48;97430.63;5079763;28;20037;-81
2022/04/22 11:10:23;;;;;;;16.92;12.25;;;;;;;21.70;31.00;97448.81;5080842;28;20036;-81
2022/04/22 11:13:02;;;;;;;16.13;9.98;;;;;;;23.07;29.97;97432.59;5081832;28;20366;-80
2022/04/22 11:15:47;;;;;;;16.20;10.52;;;;;;;23.91;28.25;97435.72;5084582;28;20505;-81
2022/04/22 11:18:15;;;;;;;15.15;8.95;;;;;;;24.71;27.43;97433.50;5074865;28;20456;-80
2022/04/22 11:20:45;;;;;;;15.38;9.93;;;;;;;24.23;26.71;97436.72;5078215;28;20036;-80
2022/04/22 11:23:15;;;;;;;11.75;7.65;;;;;;;25.41;25.61;97419.69;5078335;28;20502;-79
2022/04/22 11:25:42;;;;;;;14.25;9.77;;;;;;;24.27;27.13;97414.97;5081170;28;20044;-81
2022/04/22 11:28:09;;;;;;;13.63;8.20;;;;;;;25.74;25.89;97424.94;5081375;28;20051;-80
2022/04/22 11:30:36;;;;;;;14.65;10.52;;;;;;;23.72;27.46;97430.31;5078215;28;20039;-80
2022/04/22 11:33:22;;;;;;;14.77;8.75;;;;;;;25.25;26.66;97427.56;5081893;28;20551;-80
2022/04/22 11:35:58;;;;;;;12.32;8.70;;;;;;;26.08;24.42;97417.09;5080627;28;20032;-80
2022/04/22 11:38:24;;;;;;;14.32;10.02;;;;;;;23.73;27.28;97409.47;5079376;28;20085;-80
2022/04/22 11:40:50;;;;;;;15.70;9.40;;;;;;;22.67;29.18;97429.28;5082166;28;20035;-80
2022/04/22 11:43:21;;;;;;;12.27;8.60;;;;;;;23.66;28.15;97424.47;5078169;28;20482;-79
2022/04/22 11:45:49;;;;;;;13.97;9.43;;;;;;;23.42;28.09;97423.22;5081439;28;20405;-81
2022/04/22 11:48:24;;;;;;;13.70;9.48;;;;;;;22.74;29.19;97417.13;5083529;28;20287;-79
2022/04/22 11:50:53;;;;;;;14.27;9.73;;;;;;;24.45;27.81;97420.75;5078735;28;20042;-80
2022/04/22 11:53:21;;;;;;;18.63;10.70;;;;;;;23.73;27.58;97413.06;5078488;28;20133;-79
2022/04/22 11:55:48;;;;;;;13.32;8.90;;;;;;;23.74;28.07;97417.41;5081888;28;20370;-80
2022/04/22 11:58:17;;;;;;;14.80;9.23;;;;;;;22.61;29.53;97419.88;5081279;28;20111;-80
2022/04/22 12:06:21;;;;;;;16.40;10.10;;;;;;;22.76;29.07;97409.84;5072540;28;20047;-79
2022/04/22 12:08:54;;;;;;;12.70;8.70;;;;;;;23.29;28.36;97397.16;5077778;28;20032;-79
2022/04/22 12:11:22;;;;;;;12.93;8.82;;;;;;;23.45;27.90;97399.91;5078698;28;20040;-79
2022/04/22 12:13:48;;;;;;;13.45;8.10;;;;;;;22.87;28.71;97399.16;5078376;28;20040;-79
2022/04/22 12:16:28;;;;;;;12.73;8.45;;;;;;;23.19;28.27;97399.03;5079156;28;20040;-79
2022/04/22 12:18:55;;;;;;;13.77;8.80;;;;;;;23.15;28.61;97400.38;5081180;28;20478;-79
2022/04/22 12:21:22;;;;;;;11.55;8.05;;;;;;;24.97;25.82;97404.09;5081678;28;20028;-78
2022/04/22 12:23:51;;;;;;;14.38;8.75;;;;;;;26.33;24.18;97379.50;5078945;28;20123;-79
2022/04/22 12:26:21;;;;;;;12.45;7.10;;;;;;;24.58;26.12;97387.81;5077374;28;20037;-80
2022/04/22 12:29:00;;;;;;;12.68;7.53;;;;;;;24.73;26.63;97394.50;5077833;28;20674;-80
2022/04/22 12:31:28;;;;;;;9.80;6.00;;;;;;;26.15;24.57;97398.38;5076429;28;20497;-80
2022/04/22 12:34:03;;;;;;;11.57;6.93;;;;;;;25.78;25.03;97397.44;5076699;28;20036;-80
2022/04/22 12:36:34;;;;;;;9.63;6.10;;;;;;;26.71;23.77;97396.78;5076515;28;20036;-79